sensor_id;sensor_type;location;lat;lon;timestamp;temperature;humidity
12853;DHT22;6495;51.808;7.478;2022-12-18T00:01:59;-5.80;99.90
12853;DHT22;6495;51.808;7.478;2022-12-18T00:04:46;-5.80;99.90
12853;DHT22;6495;51.808;7.478;2022-12-18T00:07:35;-5.80;99.90
12853;DHT22;6495;51.808;7.478;2022-12-18T00:10:23;-5.80;99.90
12853;DHT22;6495;51.808;7.478;2022-12-18T00:13:10;-5.80;99.90
12853;DHT22;6495;51.808;7.478;2022-12-18T00:16:01;-5.90;99.90
12853;DHT22;6495;51.808;7.478;2022-12-18T00:18:49;-5.90;99.90
12853;DHT22;6495;51.808;7.478;2022-12-18T00:21:37;-5.90;99.90
12853;DHT22;6495;51.808;7.478;2022-12-18T00:24:25;-6.00;99.90
12853;DHT22;6495;51.808;7.478;2022-12-18T00:27:12;-6.00;99.90
12853;DHT22;6495;51.808;7.478;2022-12-18T00:29:59;-6.00;99.90
12853;DHT22;6495;51.808;7.478;2022-12-18T00:32:45;-6.00;99.90
12853;DHT22;6495;51.808;7.478;2022-12-18T00:35:31;-6.10;99.90
12853;DHT22;6495;51.808;7.478;2022-12-18T00:38:18;-6.10;99.90
12853;DHT22;6495;51.808;7.478;2022-12-18T00:41:07;-6.20;99.90
12853;DHT22;6495;51.808;7.478;2022-12-18T00:43:54;-6.10;99.90
12853;DHT22;6495;51.808;7.478;2022-12-18T00:46:40;-6.20;99.90
12853;DHT22;6495;51.808;7.478;2022-12-18T00:49:27;-6.20;99.90
12853;DHT22;6495;51.808;7.478;2022-12-18T00:52:14;-6.20;99.90
12853;DHT22;6495;51.808;7.478;2022-12-18T00:55:01;-6.20;99.90
12853;DHT22;6495;51.808;7.478;2022-12-18T00:57:52;-6.20;99.90
12853;DHT22;6495;51.808;7.478;2022-12-18T01:00:39;-6.20;99.90
12853;DHT22;6495;51.808;7.478;2022-12-18T01:03:26;-6.30;99.90
12853;DHT22;6495;51.808;7.478;2022-12-18T01:06:13;-6.30;99.90
12853;DHT22;6495;51.808;7.478;2022-12-18T01:09:01;-6.30;99.90
12853;DHT22;6495;51.808;7.478;2022-12-18T01:11:48;-6.30;99.90
12853;DHT22;6495;51.808;7.478;2022-12-18T01:14:36;-6.30;99.90
12853;DHT22;6495;51.808;7.478;2022-12-18T01:17:23;-6.30;99.90
12853;DHT22;6495;51.808;7.478;2022-12-18T01:20:11;-6.40;99.90
12853;DHT22;6495;51.808;7.478;2022-12-18T01:22:58;-6.40;99.90
12853;DHT22;6495;51.808;7.478;2022-12-18T01:25:45;-6.40;99.90
12853;DHT22;6495;51.808;7.478;2022-12-18T01:28:31;-6.40;99.90
12853;DHT22;6495;51.808;7.478;2022-12-18T01:31:21;-6.40;99.90
12853;DHT22;6495;51.808;7.478;2022-12-18T01:34:10;-6.40;99.90
12853;DHT22;6495;51.808;7.478;2022-12-18T01:36:56;-6.50;99.90
12853;DHT22;6495;51.808;7.478;2022-12-18T01:39:43;-6.50;99.90
12853;DHT22;6495;51.808;7.478;2022-12-18T01:42:30;-6.50;99.90
12853;DHT22;6495;51.808;7.478;2022-12-18T01:45:26;-6.50;99.90
12853;DHT22;6495;51.808;7.478;2022-12-18T01:48:15;-6.50;99.90
12853;DHT22;6495;51.808;7.478;2022-12-18T01:51:02;-6.50;99.90
12853;DHT22;6495;51.808;7.478;2022-12-18T01:53:49;-6.50;99.90
12853;DHT22;6495;51.808;7.478;2022-12-18T01:56:36;-6.60;99.90
12853;DHT22;6495;51.808;7.478;2022-12-18T01:59:23;-6.60;99.90
12853;DHT22;6495;51.808;7.478;2022-12-18T02:02:11;-6.60;99.90
12853;DHT22;6495;51.808;7.478;2022-12-18T02:05:00;-6.70;99.90
12853;DHT22;6495;51.808;7.478;2022-12-18T02:07:57;-6.70;99.90
12853;DHT22;6495;51.808;7.478;2022-12-18T02:10:59;-6.70;99.90
12853;DHT22;6495;51.808;7.478;2022-12-18T02:13:57;-6.70;99.90
12853;DHT22;6495;51.808;7.478;2022-12-18T02:16:52;-6.70;99.90
12853;DHT22;6495;51.808;7.478;2022-12-18T02:19:55;-6.70;99.90
12853;DHT22;6495;51.808;7.478;2022-12-18T02:23:01;-6.70;99.90
12853;DHT22;6495;51.808;7.478;2022-12-18T02:26:14;-6.80;99.90
12853;DHT22;6495;51.808;7.478;2022-12-18T02:29:07;-6.80;99.90
12853;DHT22;6495;51.808;7.478;2022-12-18T02:32:00;-6.80;99.90
12853;DHT22;6495;51.808;7.478;2022-12-18T02:34:50;-6.80;99.90
12853;DHT22;6495;51.808;7.478;2022-12-18T02:37:42;-6.80;99.90
12853;DHT22;6495;51.808;7.478;2022-12-18T02:40:31;-6.80;99.90
12853;DHT22;6495;51.808;7.478;2022-12-18T02:43:19;-6.80;99.90
12853;DHT22;6495;51.808;7.478;2022-12-18T02:46:25;-6.90;99.90
12853;DHT22;6495;51.808;7.478;2022-12-18T02:49:29;-6.90;99.90
12853;DHT22;6495;51.808;7.478;2022-12-18T02:52:28;-6.90;99.90
12853;DHT22;6495;51.808;7.478;2022-12-18T02:55:28;-7.00;99.90
12853;DHT22;6495;51.808;7.478;2022-12-18T02:58:30;-7.00;99.90
12853;DHT22;6495;51.808;7.478;2022-12-18T03:01:28;-7.00;99.90
12853;DHT22;6495;51.808;7.478;2022-12-18T03:04:25;-7.00;99.90
12853;DHT22;6495;51.808;7.478;2022-12-18T03:07:28;-7.10;99.90
12853;DHT22;6495;51.808;7.478;2022-12-18T03:10:30;-7.10;99.90
12853;DHT22;6495;51.808;7.478;2022-12-18T03:13:24;-7.10;99.90
12853;DHT22;6495;51.808;7.478;2022-12-18T03:16:19;-7.10;99.90
12853;DHT22;6495;51.808;7.478;2022-12-18T03:19:13;-7.10;99.90
12853;DHT22;6495;51.808;7.478;2022-12-18T03:22:05;-7.10;99.90
12853;DHT22;6495;51.808;7.478;2022-12-18T03:24:54;-7.10;99.90
12853;DHT22;6495;51.808;7.478;2022-12-18T03:27:46;-7.20;99.90
12853;DHT22;6495;51.808;7.478;2022-12-18T03:30:37;-7.20;99.90
12853;DHT22;6495;51.808;7.478;2022-12-18T03:33:30;-7.20;99.90
12853;DHT22;6495;51.808;7.478;2022-12-18T03:36:23;-7.20;99.90
12853;DHT22;6495;51.808;7.478;2022-12-18T03:39:09;-7.20;99.90
12853;DHT22;6495;51.808;7.478;2022-12-18T03:42:01;-7.20;99.90
12853;DHT22;6495;51.808;7.478;2022-12-18T03:44:57;-7.20;99.90
12853;DHT22;6495;51.808;7.478;2022-12-18T03:47:57;-7.20;99.90
12853;DHT22;6495;51.808;7.478;2022-12-18T03:50:49;-7.30;99.90
12853;DHT22;6495;51.808;7.478;2022-12-18T03:53:46;-7.30;99.90
12853;DHT22;6495;51.808;7.478;2022-12-18T03:56:42;-7.30;99.90
12853;DHT22;6495;51.808;7.478;2022-12-18T03:59:33;-7.30;99.90
12853;DHT22;6495;51.808;7.478;2022-12-18T04:02:22;-7.30;99.90
12853;DHT22;6495;51.808;7.478;2022-12-18T04:05:12;-7.30;99.90
12853;DHT22;6495;51.808;7.478;2022-12-18T04:08:01;-7.30;99.90
12853;DHT22;6495;51.808;7.478;2022-12-18T04:10:48;-7.30;99.90
12853;DHT22;6495;51.808;7.478;2022-12-18T04:13:36;-7.30;99.90
12853;DHT22;6495;51.808;7.478;2022-12-18T04:16:24;-7.30;99.90
12853;DHT22;6495;51.808;7.478;2022-12-18T04:19:12;-7.30;99.90
12853;DHT22;6495;51.808;7.478;2022-12-18T04:22:00;-7.30;99.90
12853;DHT22;6495;51.808;7.478;2022-12-18T04:24:46;-7.30;99.90
12853;DHT22;6495;51.808;7.478;2022-12-18T04:27:33;-7.30;99.90
12853;DHT22;6495;51.808;7.478;2022-12-18T04:30:20;-7.30;99.90
12853;DHT22;6495;51.808;7.478;2022-12-18T04:33:08;-7.30;99.90
12853;DHT22;6495;51.808;7.478;2022-12-18T04:35:55;-7.30;99.90
12853;DHT22;6495;51.808;7.478;2022-12-18T04:38:43;-7.40;99.90
12853;DHT22;6495;51.808;7.478;2022-12-18T04:41:30;-7.40;99.90
12853;DHT22;6495;51.808;7.478;2022-12-18T04:44:17;-7.40;99.90
12853;DHT22;6495;51.808;7.478;2022-12-18T04:47:04;-7.40;99.90
12853;DHT22;6495;51.808;7.478;2022-12-18T04:49:50;-7.40;99.90
12853;DHT22;6495;51.808;7.478;2022-12-18T04:52:37;-7.40;99.90
12853;DHT22;6495;51.808;7.478;2022-12-18T04:55:25;-7.40;99.90
12853;DHT22;6495;51.808;7.478;2022-12-18T04:58:12;-7.40;99.90
12853;DHT22;6495;51.808;7.478;2022-12-18T05:00:59;-7.40;99.90
12853;DHT22;6495;51.808;7.478;2022-12-18T05:03:46;-7.40;99.90
12853;DHT22;6495;51.808;7.478;2022-12-18T05:06:33;-7.40;99.90
12853;DHT22;6495;51.808;7.478;2022-12-18T05:09:20;-7.40;99.90
12853;DHT22;6495;51.808;7.478;2022-12-18T05:12:08;-7.40;99.90
12853;DHT22;6495;51.808;7.478;2022-12-18T05:14:55;-7.40;99.90
12853;DHT22;6495;51.808;7.478;2022-12-18T05:17:41;-7.40;99.90
12853;DHT22;6495;51.808;7.478;2022-12-18T05:20:28;-7.40;99.90
12853;DHT22;6495;51.808;7.478;2022-12-18T05:23:15;-7.40;99.90
12853;DHT22;6495;51.808;7.478;2022-12-18T05:26:04;-7.40;99.90
12853;DHT22;6495;51.808;7.478;2022-12-18T05:28:54;-7.40;99.90
12853;DHT22;6495;51.808;7.478;2022-12-18T05:31:43;-7.40;99.90
12853;DHT22;6495;51.808;7.478;2022-12-18T05:34:30;-7.40;99.90
12853;DHT22;6495;51.808;7.478;2022-12-18T05:37:18;-7.40;99.90
12853;DHT22;6495;51.808;7.478;2022-12-18T05:40:07;-7.40;99.90
12853;DHT22;6495;51.808;7.478;2022-12-18T05:42:54;-7.40;99.90
12853;DHT22;6495;51.808;7.478;2022-12-18T05:45:42;-7.40;99.90
12853;DHT22;6495;51.808;7.478;2022-12-18T05:48:29;-7.40;99.90
12853;DHT22;6495;51.808;7.478;2022-12-18T05:51:17;-7.40;99.90
12853;DHT22;6495;51.808;7.478;2022-12-18T05:54:06;-7.40;99.90
12853;DHT22;6495;51.808;7.478;2022-12-18T05:56:52;-7.40;99.90
12853;DHT22;6495;51.808;7.478;2022-12-18T05:59:40;-7.40;99.90
12853;DHT22;6495;51.808;7.478;2022-12-18T06:02:27;-7.40;99.90
12853;DHT22;6495;51.808;7.478;2022-12-18T06:05:14;-7.40;99.90
12853;DHT22;6495;51.808;7.478;2022-12-18T06:08:01;-7.40;99.90
12853;DHT22;6495;51.808;7.478;2022-12-18T06:10:52;-7.40;99.90
12853;DHT22;6495;51.808;7.478;2022-12-18T06:13:39;-7.40;99.90
12853;DHT22;6495;51.808;7.478;2022-12-18T06:16:26;-7.40;99.90
12853;DHT22;6495;51.808;7.478;2022-12-18T06:19:16;-7.40;99.90
12853;DHT22;6495;51.808;7.478;2022-12-18T06:22:03;-7.40;99.90
12853;DHT22;6495;51.808;7.478;2022-12-18T06:24:49;-7.40;99.90
12853;DHT22;6495;51.808;7.478;2022-12-18T06:27:36;-7.40;99.90
12853;DHT22;6495;51.808;7.478;2022-12-18T06:30:23;-7.40;99.90
12853;DHT22;6495;51.808;7.478;2022-12-18T06:33:10;-7.40;99.90
12853;DHT22;6495;51.808;7.478;2022-12-18T06:36:01;-7.40;99.90
12853;DHT22;6495;51.808;7.478;2022-12-18T06:38:49;-7.40;99.90
12853;DHT22;6495;51.808;7.478;2022-12-18T06:41:36;-7.40;99.90
12853;DHT22;6495;51.808;7.478;2022-12-18T06:44:23;-7.30;99.90
12853;DHT22;6495;51.808;7.478;2022-12-18T06:47:10;-7.30;99.90
12853;DHT22;6495;51.808;7.478;2022-12-18T06:49:57;-7.30;99.90
12853;DHT22;6495;51.808;7.478;2022-12-18T06:52:45;-7.40;99.90
12853;DHT22;6495;51.808;7.478;2022-12-18T06:55:31;-7.40;99.90
12853;DHT22;6495;51.808;7.478;2022-12-18T06:58:18;-7.40;99.90
12853;DHT22;6495;51.808;7.478;2022-12-18T07:01:06;-7.40;99.90
12853;DHT22;6495;51.808;7.478;2022-12-18T07:03:55;-7.40;99.90
12853;DHT22;6495;51.808;7.478;2022-12-18T07:06:42;-7.30;99.90
12853;DHT22;6495;51.808;7.478;2022-12-18T07:09:30;-7.30;99.90
12853;DHT22;6495;51.808;7.478;2022-12-18T07:12:17;-7.30;99.90
12853;DHT22;6495;51.808;7.478;2022-12-18T07:15:05;-7.30;99.90
12853;DHT22;6495;51.808;7.478;2022-12-18T07:17:53;-7.30;99.90
12853;DHT22;6495;51.808;7.478;2022-12-18T07:20:40;-7.30;99.90
12853;DHT22;6495;51.808;7.478;2022-12-18T07:23:26;-7.30;99.90
12853;DHT22;6495;51.808;7.478;2022-12-18T07:26:16;-7.30;99.90
12853;DHT22;6495;51.808;7.478;2022-12-18T07:29:05;-7.30;99.90
12853;DHT22;6495;51.808;7.478;2022-12-18T07:31:51;-7.30;99.90
12853;DHT22;6495;51.808;7.478;2022-12-18T07:34:38;-7.30;99.90
12853;DHT22;6495;51.808;7.478;2022-12-18T07:37:25;-7.30;99.90
12853;DHT22;6495;51.808;7.478;2022-12-18T07:40:12;-7.30;99.90
12853;DHT22;6495;51.808;7.478;2022-12-18T07:43:00;-7.30;99.90
12853;DHT22;6495;51.808;7.478;2022-12-18T07:45:49;-7.30;99.90
12853;DHT22;6495;51.808;7.478;2022-12-18T07:48:36;-7.30;99.90
12853;DHT22;6495;51.808;7.478;2022-12-18T07:51:22;-7.20;99.90
12853;DHT22;6495;51.808;7.478;2022-12-18T07:54:09;-7.20;99.90
12853;DHT22;6495;51.808;7.478;2022-12-18T07:56:55;-7.20;99.90
12853;DHT22;6495;51.808;7.478;2022-12-18T07:59:43;-7.10;99.90
12853;DHT22;6495;51.808;7.478;2022-12-18T08:02:30;-7.10;99.90
12853;DHT22;6495;51.808;7.478;2022-12-18T08:05:17;-7.10;99.90
12853;DHT22;6495;51.808;7.478;2022-12-18T08:08:04;-7.10;99.90
12853;DHT22;6495;51.808;7.478;2022-12-18T08:10:51;-7.00;99.90
12853;DHT22;6495;51.808;7.478;2022-12-18T08:13:37;-7.00;99.90
12853;DHT22;6495;51.808;7.478;2022-12-18T08:16:26;-6.90;99.90
12853;DHT22;6495;51.808;7.478;2022-12-18T08:19:13;-6.90;99.90
12853;DHT22;6495;51.808;7.478;2022-12-18T08:21:59;-6.90;99.90
12853;DHT22;6495;51.808;7.478;2022-12-18T08:24:46;-6.80;99.90
12853;DHT22;6495;51.808;7.478;2022-12-18T08:27:32;-6.70;99.90
12853;DHT22;6495;51.808;7.478;2022-12-18T08:30:19;-6.70;99.90
12853;DHT22;6495;51.808;7.478;2022-12-18T08:33:08;-6.70;99.90
12853;DHT22;6495;51.808;7.478;2022-12-18T08:35:55;-6.60;99.90
12853;DHT22;6495;51.808;7.478;2022-12-18T08:38:41;-6.60;99.90
12853;DHT22;6495;51.808;7.478;2022-12-18T08:41:28;-6.50;99.90
12853;DHT22;6495;51.808;7.478;2022-12-18T08:44:15;-6.50;99.90
12853;DHT22;6495;51.808;7.478;2022-12-18T08:47:20;-6.40;99.90
12853;DHT22;6495;51.808;7.478;2022-12-18T08:50:09;-6.30;99.90
12853;DHT22;6495;51.808;7.478;2022-12-18T08:52:57;-6.30;99.90
12853;DHT22;6495;51.808;7.478;2022-12-18T08:55:43;-6.20;99.90
12853;DHT22;6495;51.808;7.478;2022-12-18T08:58:34;-6.10;99.90
12853;DHT22;6495;51.808;7.478;2022-12-18T09:01:22;-6.10;99.90
12853;DHT22;6495;51.808;7.478;2022-12-18T09:04:09;-6.00;99.90
12853;DHT22;6495;51.808;7.478;2022-12-18T09:06:58;-5.90;99.90
12853;DHT22;6495;51.808;7.478;2022-12-18T09:09:44;-5.80;99.90
12853;DHT22;6495;51.808;7.478;2022-12-18T09:12:32;-5.80;99.90
12853;DHT22;6495;51.808;7.478;2022-12-18T09:15:19;-5.70;99.90
12853;DHT22;6495;51.808;7.478;2022-12-18T09:18:06;-5.70;99.90
12853;DHT22;6495;51.808;7.478;2022-12-18T09:20:52;-5.60;99.90
12853;DHT22;6495;51.808;7.478;2022-12-18T09:23:41;-5.50;99.90
12853;DHT22;6495;51.808;7.478;2022-12-18T09:26:27;-5.40;99.90
12853;DHT22;6495;51.808;7.478;2022-12-18T09:29:14;-5.40;99.90
12853;DHT22;6495;51.808;7.478;2022-12-18T09:32:06;-5.30;99.90
12853;DHT22;6495;51.808;7.478;2022-12-18T09:34:52;-5.20;99.90
12853;DHT22;6495;51.808;7.478;2022-12-18T09:37:39;-5.10;99.90
12853;DHT22;6495;51.808;7.478;2022-12-18T09:40:39;-5.10;99.90
12853;DHT22;6495;51.808;7.478;2022-12-18T09:43:35;-5.00;99.90
12853;DHT22;6495;51.808;7.478;2022-12-18T09:46:37;-4.90;99.90
12853;DHT22;6495;51.808;7.478;2022-12-18T09:49:28;-4.80;99.90
12853;DHT22;6495;51.808;7.478;2022-12-18T09:52:20;-4.80;99.90
12853;DHT22;6495;51.808;7.478;2022-12-18T09:55:14;-4.70;99.90
12853;DHT22;6495;51.808;7.478;2022-12-18T09:58:14;-4.60;99.90
12853;DHT22;6495;51.808;7.478;2022-12-18T10:01:09;-4.50;99.90
12853;DHT22;6495;51.808;7.478;2022-12-18T10:03:56;-4.30;99.90
12853;DHT22;6495;51.808;7.478;2022-12-18T10:06:50;-4.20;99.90
12853;DHT22;6495;51.808;7.478;2022-12-18T10:09:46;-4.10;99.90
12853;DHT22;6495;51.808;7.478;2022-12-18T10:12:44;-4.00;99.90
12853;DHT22;6495;51.808;7.478;2022-12-18T10:15:43;-3.80;99.90
12853;DHT22;6495;51.808;7.478;2022-12-18T10:19:00;-3.70;99.90
12853;DHT22;6495;51.808;7.478;2022-12-18T10:22:01;-3.60;99.90
12853;DHT22;6495;51.808;7.478;2022-12-18T10:25:01;-3.50;99.90
12853;DHT22;6495;51.808;7.478;2022-12-18T10:27:53;-3.40;99.90
12853;DHT22;6495;51.808;7.478;2022-12-18T10:30:47;-3.30;99.90
12853;DHT22;6495;51.808;7.478;2022-12-18T10:33:34;-3.20;99.90
12853;DHT22;6495;51.808;7.478;2022-12-18T10:36:22;-3.10;99.90
12853;DHT22;6495;51.808;7.478;2022-12-18T10:39:17;-3.00;99.90
12853;DHT22;6495;51.808;7.478;2022-12-18T10:42:11;-2.90;99.90
12853;DHT22;6495;51.808;7.478;2022-12-18T10:45:08;-2.90;99.90
12853;DHT22;6495;51.808;7.478;2022-12-18T10:47:59;-2.80;99.90
12853;DHT22;6495;51.808;7.478;2022-12-18T10:50:48;-2.70;99.90
12853;DHT22;6495;51.808;7.478;2022-12-18T10:53:59;-2.70;99.90
12853;DHT22;6495;51.808;7.478;2022-12-18T10:56:50;-2.60;99.90
12853;DHT22;6495;51.808;7.478;2022-12-18T10:59:50;-2.60;99.90
12853;DHT22;6495;51.808;7.478;2022-12-18T11:02:38;-2.50;99.90
12853;DHT22;6495;51.808;7.478;2022-12-18T11:05:29;-2.50;99.90
12853;DHT22;6495;51.808;7.478;2022-12-18T11:08:20;-2.40;99.90
12853;DHT22;6495;51.808;7.478;2022-12-18T11:11:18;-2.40;99.90
12853;DHT22;6495;51.808;7.478;2022-12-18T11:14:12;-2.30;99.90
12853;DHT22;6495;51.808;7.478;2022-12-18T11:17:04;-2.30;99.90
12853;DHT22;6495;51.808;7.478;2022-12-18T11:20:30;-2.20;99.90
12853;DHT22;6495;51.808;7.478;2022-12-18T11:23:21;-2.20;99.90
12853;DHT22;6495;51.808;7.478;2022-12-18T11:26:09;-2.10;99.90
12853;DHT22;6495;51.808;7.478;2022-12-18T11:29:09;-2.10;99.90
12853;DHT22;6495;51.808;7.478;2022-12-18T11:32:31;-2.10;99.90
12853;DHT22;6495;51.808;7.478;2022-12-18T11:35:39;-2.00;99.90
12853;DHT22;6495;51.808;7.478;2022-12-18T11:38:33;-2.00;99.90
12853;DHT22;6495;51.808;7.478;2022-12-18T11:41:27;-1.90;99.90
12853;DHT22;6495;51.808;7.478;2022-12-18T11:44:38;-1.90;99.90
12853;DHT22;6495;51.808;7.478;2022-12-18T11:47:34;-1.90;99.90
12853;DHT22;6495;51.808;7.478;2022-12-18T11:50:29;-1.90;99.90
12853;DHT22;6495;51.808;7.478;2022-12-18T11:53:21;-1.80;99.90
12853;DHT22;6495;51.808;7.478;2022-12-18T11:56:25;-1.80;99.90
12853;DHT22;6495;51.808;7.478;2022-12-18T11:59:20;-1.80;99.90
12853;DHT22;6495;51.808;7.478;2022-12-18T12:02:29;-1.80;99.90
12853;DHT22;6495;51.808;7.478;2022-12-18T12:05:42;-1.70;99.90
12853;DHT22;6495;51.808;7.478;2022-12-18T12:08:47;-1.70;99.90
12853;DHT22;6495;51.808;7.478;2022-12-18T12:11:58;-1.70;99.90
12853;DHT22;6495;51.808;7.478;2022-12-18T12:15:02;-1.70;99.90
12853;DHT22;6495;51.808;7.478;2022-12-18T12:18:06;-1.60;99.90
12853;DHT22;6495;51.808;7.478;2022-12-18T12:21:06;-1.60;99.90
12853;DHT22;6495;51.808;7.478;2022-12-18T12:24:07;-1.60;99.90
12853;DHT22;6495;51.808;7.478;2022-12-18T12:27:10;-1.60;99.90
12853;DHT22;6495;51.808;7.478;2022-12-18T12:30:08;-1.60;99.90
12853;DHT22;6495;51.808;7.478;2022-12-18T12:33:09;-1.60;99.90
12853;DHT22;6495;51.808;7.478;2022-12-18T12:36:13;-1.50;99.90
12853;DHT22;6495;51.808;7.478;2022-12-18T12:39:10;-1.50;99.90
12853;DHT22;6495;51.808;7.478;2022-12-18T12:42:02;-1.50;99.90
12853;DHT22;6495;51.808;7.478;2022-12-18T12:45:22;-1.50;99.90
12853;DHT22;6495;51.808;7.478;2022-12-18T12:48:20;-1.40;99.90
12853;DHT22;6495;51.808;7.478;2022-12-18T12:51:17;-1.40;99.90
12853;DHT22;6495;51.808;7.478;2022-12-18T12:54:14;-1.40;99.90
12853;DHT22;6495;51.808;7.478;2022-12-18T12:57:08;-1.40;99.90
12853;DHT22;6495;51.808;7.478;2022-12-18T13:00:02;-1.40;99.90
12853;DHT22;6495;51.808;7.478;2022-12-18T13:03:01;-1.40;99.90
12853;DHT22;6495;51.808;7.478;2022-12-18T13:06:02;-1.30;99.90
12853;DHT22;6495;51.808;7.478;2022-12-18T13:08:57;-1.30;99.90
12853;DHT22;6495;51.808;7.478;2022-12-18T13:11:47;-1.30;99.90
12853;DHT22;6495;51.808;7.478;2022-12-18T13:14:52;-1.30;99.90
12853;DHT22;6495;51.808;7.478;2022-12-18T13:17:39;-1.30;99.90
12853;DHT22;6495;51.808;7.478;2022-12-18T13:20:33;-1.30;99.90
12853;DHT22;6495;51.808;7.478;2022-12-18T13:23:29;-1.20;99.90
12853;DHT22;6495;51.808;7.478;2022-12-18T13:26:30;-1.20;99.90
12853;DHT22;6495;51.808;7.478;2022-12-18T13:29:44;-1.20;99.90
12853;DHT22;6495;51.808;7.478;2022-12-18T13:32:31;-1.20;99.90
12853;DHT22;6495;51.808;7.478;2022-12-18T13:35:38;-1.20;99.90
12853;DHT22;6495;51.808;7.478;2022-12-18T13:38:33;-1.10;99.90
12853;DHT22;6495;51.808;7.478;2022-12-18T13:41:24;-1.10;99.90
12853;DHT22;6495;51.808;7.478;2022-12-18T13:44:17;-1.10;99.90
12853;DHT22;6495;51.808;7.478;2022-12-18T13:47:27;-1.10;99.90
12853;DHT22;6495;51.808;7.478;2022-12-18T13:50:24;-1.00;99.90
12853;DHT22;6495;51.808;7.478;2022-12-18T13:53:22;-1.10;99.90
12853;DHT22;6495;51.808;7.478;2022-12-18T13:56:16;-1.00;99.90
12853;DHT22;6495;51.808;7.478;2022-12-18T13:59:16;-1.00;99.90
12853;DHT22;6495;51.808;7.478;2022-12-18T14:02:13;-1.00;99.90
12853;DHT22;6495;51.808;7.478;2022-12-18T14:05:03;-1.00;99.90
12853;DHT22;6495;51.808;7.478;2022-12-18T14:07:51;-1.00;99.90
12853;DHT22;6495;51.808;7.478;2022-12-18T14:10:40;-0.90;99.90
12853;DHT22;6495;51.808;7.478;2022-12-18T14:13:36;-0.90;99.90
12853;DHT22;6495;51.808;7.478;2022-12-18T14:16:27;-0.90;99.90
12853;DHT22;6495;51.808;7.478;2022-12-18T14:19:17;-0.90;99.90
12853;DHT22;6495;51.808;7.478;2022-12-18T14:22:04;-0.90;99.90
12853;DHT22;6495;51.808;7.478;2022-12-18T14:25:10;-0.90;99.90
12853;DHT22;6495;51.808;7.478;2022-12-18T14:28:07;-0.80;99.90
12853;DHT22;6495;51.808;7.478;2022-12-18T14:31:00;-0.80;99.90
12853;DHT22;6495;51.808;7.478;2022-12-18T14:33:46;-0.80;99.90
12853;DHT22;6495;51.808;7.478;2022-12-18T14:36:34;-0.80;99.90
12853;DHT22;6495;51.808;7.478;2022-12-18T14:39:21;-0.80;99.90
12853;DHT22;6495;51.808;7.478;2022-12-18T14:42:10;-0.80;99.90
12853;DHT22;6495;51.808;7.478;2022-12-18T14:45:32;-0.80;99.90
12853;DHT22;6495;51.808;7.478;2022-12-18T14:48:37;-0.70;99.90
12853;DHT22;6495;51.808;7.478;2022-12-18T14:51:31;-0.80;99.90
12853;DHT22;6495;51.808;7.478;2022-12-18T14:54:21;-0.80;99.90
12853;DHT22;6495;51.808;7.478;2022-12-18T14:57:20;-0.80;99.90
12853;DHT22;6495;51.808;7.478;2022-12-18T15:00:16;-0.80;99.90
12853;DHT22;6495;51.808;7.478;2022-12-18T15:03:07;-0.80;99.90
12853;DHT22;6495;51.808;7.478;2022-12-18T15:05:55;-0.80;99.90
12853;DHT22;6495;51.808;7.478;2022-12-18T15:08:43;-0.80;99.90
12853;DHT22;6495;51.808;7.478;2022-12-18T15:11:44;-0.80;99.90
12853;DHT22;6495;51.808;7.478;2022-12-18T15:14:39;-0.80;99.90
12853;DHT22;6495;51.808;7.478;2022-12-18T15:17:29;-0.80;99.90
12853;DHT22;6495;51.808;7.478;2022-12-18T15:20:16;-0.80;99.90
12853;DHT22;6495;51.808;7.478;2022-12-18T15:23:03;-0.80;99.90
12853;DHT22;6495;51.808;7.478;2022-12-18T15:25:58;-0.80;99.90
12853;DHT22;6495;51.808;7.478;2022-12-18T15:28:50;-0.80;99.90
12853;DHT22;6495;51.808;7.478;2022-12-18T15:31:37;-0.70;99.90
12853;DHT22;6495;51.808;7.478;2022-12-18T15:34:24;-0.70;99.90
12853;DHT22;6495;51.808;7.478;2022-12-18T15:37:14;-0.70;99.90
12853;DHT22;6495;51.808;7.478;2022-12-18T15:40:01;-0.70;99.90
12853;DHT22;6495;51.808;7.478;2022-12-18T15:42:48;-0.70;99.90
12853;DHT22;6495;51.808;7.478;2022-12-18T15:45:57;-0.70;99.90
12853;DHT22;6495;51.808;7.478;2022-12-18T15:48:46;-0.70;99.90
12853;DHT22;6495;51.808;7.478;2022-12-18T15:51:35;-0.70;99.90
12853;DHT22;6495;51.808;7.478;2022-12-18T15:54:24;-0.60;99.90
12853;DHT22;6495;51.808;7.478;2022-12-18T15:57:25;-0.60;99.90
12853;DHT22;6495;51.808;7.478;2022-12-18T16:00:13;-0.60;99.90
12853;DHT22;6495;51.808;7.478;2022-12-18T16:03:02;-0.60;99.90
12853;DHT22;6495;51.808;7.478;2022-12-18T16:05:49;-0.60;99.90
12853;DHT22;6495;51.808;7.478;2022-12-18T16:08:36;-0.60;99.90
12853;DHT22;6495;51.808;7.478;2022-12-18T16:11:26;-0.60;99.90
12853;DHT22;6495;51.808;7.478;2022-12-18T16:14:27;-0.60;99.90
12853;DHT22;6495;51.808;7.478;2022-12-18T16:17:16;-0.50;99.90
12853;DHT22;6495;51.808;7.478;2022-12-18T16:20:07;-0.50;99.90
12853;DHT22;6495;51.808;7.478;2022-12-18T16:23:00;-0.50;99.90
12853;DHT22;6495;51.808;7.478;2022-12-18T16:25:47;-0.50;99.90
12853;DHT22;6495;51.808;7.478;2022-12-18T16:28:34;-0.50;99.90
12853;DHT22;6495;51.808;7.478;2022-12-18T16:31:20;-0.50;99.90
12853;DHT22;6495;51.808;7.478;2022-12-18T16:34:12;-0.50;99.90
12853;DHT22;6495;51.808;7.478;2022-12-18T16:37:02;-0.40;99.90
12853;DHT22;6495;51.808;7.478;2022-12-18T16:39:50;-0.40;99.90
12853;DHT22;6495;51.808;7.478;2022-12-18T16:42:39;-0.40;99.90
12853;DHT22;6495;51.808;7.478;2022-12-18T16:45:28;-0.40;99.90
12853;DHT22;6495;51.808;7.478;2022-12-18T16:48:18;-0.40;99.90
12853;DHT22;6495;51.808;7.478;2022-12-18T16:51:05;-0.40;99.90
12853;DHT22;6495;51.808;7.478;2022-12-18T16:53:53;-0.40;99.90
12853;DHT22;6495;51.808;7.478;2022-12-18T16:56:43;-0.40;99.90
12853;DHT22;6495;51.808;7.478;2022-12-18T16:59:34;-0.40;99.90
12853;DHT22;6495;51.808;7.478;2022-12-18T17:02:23;-0.40;99.90
12853;DHT22;6495;51.808;7.478;2022-12-18T17:05:12;-0.40;99.90
12853;DHT22;6495;51.808;7.478;2022-12-18T17:07:58;-0.30;99.90
12853;DHT22;6495;51.808;7.478;2022-12-18T17:10:47;-0.30;99.90
12853;DHT22;6495;51.808;7.478;2022-12-18T17:13:33;-0.30;99.90
12853;DHT22;6495;51.808;7.478;2022-12-18T17:16:21;-0.30;99.90
12853;DHT22;6495;51.808;7.478;2022-12-18T17:19:08;-0.30;99.90
12853;DHT22;6495;51.808;7.478;2022-12-18T17:22:01;-0.30;99.90
12853;DHT22;6495;51.808;7.478;2022-12-18T17:24:49;-0.30;99.90
12853;DHT22;6495;51.808;7.478;2022-12-18T17:27:37;-0.30;99.90
12853;DHT22;6495;51.808;7.478;2022-12-18T17:30:28;-0.40;99.90
12853;DHT22;6495;51.808;7.478;2022-12-18T17:33:15;-0.40;99.90
12853;DHT22;6495;51.808;7.478;2022-12-18T17:36:01;-0.40;99.90
12853;DHT22;6495;51.808;7.478;2022-12-18T17:38:50;-0.40;99.90
12853;DHT22;6495;51.808;7.478;2022-12-18T17:41:37;-0.40;99.90
12853;DHT22;6495;51.808;7.478;2022-12-18T17:44:25;-0.40;99.90
12853;DHT22;6495;51.808;7.478;2022-12-18T17:47:13;-0.40;99.90
12853;DHT22;6495;51.808;7.478;2022-12-18T17:49:59;-0.40;99.90
12853;DHT22;6495;51.808;7.478;2022-12-18T17:52:46;-0.40;99.90
12853;DHT22;6495;51.808;7.478;2022-12-18T17:55:33;-0.30;99.90
12853;DHT22;6495;51.808;7.478;2022-12-18T17:58:19;-0.40;99.90
12853;DHT22;6495;51.808;7.478;2022-12-18T18:01:11;-0.30;99.90
12853;DHT22;6495;51.808;7.478;2022-12-18T18:04:00;-0.30;99.90
12853;DHT22;6495;51.808;7.478;2022-12-18T18:06:47;-0.30;99.90
12853;DHT22;6495;51.808;7.478;2022-12-18T18:09:34;-0.30;99.90
12853;DHT22;6495;51.808;7.478;2022-12-18T18:12:20;-0.30;99.90
12853;DHT22;6495;51.808;7.478;2022-12-18T18:15:24;-0.30;99.90
12853;DHT22;6495;51.808;7.478;2022-12-18T18:18:13;-0.30;99.90
12853;DHT22;6495;51.808;7.478;2022-12-18T18:21:03;-0.30;99.90